Time;durP1;ratioP1;P1;durP2;ratioP2;P2;SDS_P1;SDS_P2;PMS_P1;PMS_P2;Temp;Humidity;BMP_temperature;BMP_pressure;BME280_temperature;BME280_humidity;BME280_pressure;Samples;Min_cycle;Max_cycle;Signal;HPM_P1;HPM_P2
2022/09/05 00:02:05;;;;;;;;;16.00;16.00;;;;;17.41;89.63;100299.41;6276155;20;2828371;-62
2022/09/05 00:05:20;;;;;;;;;22.50;19.00;;;;;17.36;89.56;100299.78;6284214;20;2825287;-62
2022/09/05 00:08:40;;;;;;;;;21.50;20.00;;;;;16.93;92.06;100294.16;6281658;20;2831493;-55
2022/09/05 00:11:36;;;;;;;;;20.50;18.50;;;;;16.89;93.32;100299.81;6286013;20;2831502;-54
2022/09/05 00:14:49;;;;;;;;;21.67;19.67;;;;;16.66;93.77;100289.84;6279843;20;2834118;-53
2022/09/05 00:17:58;;;;;;;;;18.33;18.33;;;;;16.62;94.60;100291.97;6313830;20;3558564;-52
2022/09/05 00:21:34;;;;;;;;;21.00;19.50;;;;;16.74;93.41;100298.25;6314440;20;2846230;-55
2022/09/05 00:25:28;;;;;;;;;23.00;21.00;;;;;16.28;95.84;100293.66;6279131;20;2832824;-51
2022/09/05 00:28:38;;;;;;;;;22.67;22.67;;;;;16.53;95.19;100298.06;6281147;20;3581615;-56
2022/09/05 00:31:55;;;;;;;;;21.00;20.00;;;;;16.65;94.35;100283.59;6280603;20;2838839;-51
2022/09/05 00:34:51;;;;;;;;;21.63;20.38;;;;;16.36;95.67;100285.81;6303863;20;3586222;-54
2022/09/05 00:37:40;;;;;;;;;24.33;19.33;;;;;16.56;95.31;100286.13;6288215;20;3591039;-53
2022/09/05 00:40:32;;;;;;;;;22.50;22.00;;;;;16.32;95.77;100288.88;6284065;20;2839878;-56
2022/09/05 00:43:20;;;;;;;;;18.50;17.50;;;;;16.57;95.23;100287.88;6279937;20;2828374;-55
2022/09/05 00:46:30;;;;;;;;;22.00;20.00;;;;;16.59;94.77;100286.78;6280952;20;2835653;-53
2022/09/05 00:49:45;;;;;;;;;22.33;21.67;;;;;16.48;95.03;100278.59;6277883;20;2846181;-58
2022/09/05 00:52:39;;;;;;;;;24.67;23.33;;;;;16.54;94.26;100283.56;6316222;20;3585707;-61
2022/09/05 00:55:36;;;;;;;;;20.67;20.67;;;;;16.41;94.70;100293.59;6280294;20;2844030;-61
2022/09/05 00:58:19;;;;;;;;;24.00;24.00;;;;;16.24;95.33;100286.75;6314564;20;3600292;-59
2022/09/05 01:00:57;;;;;;;;;26.33;22.67;;;;;16.16;95.96;100294.59;6282566;20;3594065;-62
2022/09/05 01:04:11;;;;;;;;;23.67;22.33;;;;;16.19;95.63;100294.34;6283776;20;3565132;-61
2022/09/05 01:07:55;;;;;;;;;23.00;20.00;;;;;15.99;96.41;100293.16;6312295;20;3582645;-52
2022/09/05 01:10:57;;;;;;;;;25.00;23.33;;;;;16.04;96.19;100292.81;6282767;20;3602574;-56
2022/09/05 01:14:19;;;;;;;;;22.67;21.67;;;;;15.90;96.78;100300.09;6307829;20;2844113;-56
2022/09/05 01:17:56;;;;;;;;;22.00;22.00;;;;;15.86;97.76;100298.59;6312106;20;3590965;-55
2022/09/05 01:21:23;;;;;;;;;24.67;22.67;;;;;15.89;97.04;100284.84;6311620;20;3596113;-53
2022/09/05 01:24:16;;;;;;;;;23.33;21.33;;;;;15.96;96.94;100294.25;6281442;20;2852479;-59
2022/09/05 01:27:57;;;;;;;;;25.33;24.33;;;;;15.89;97.06;100287.53;6315263;20;3596215;-59
2022/09/05 01:31:26;;;;;;;;;23.00;23.00;;;;;15.75;97.96;100290.41;6280125;20;2852594;-59
2022/09/05 01:34:53;;;;;;;;;22.00;22.00;;;;;15.83;97.56;100288.00;6313479;20;3584646;-60
2022/09/05 01:37:47;;;;;;;;;24.33;21.00;;;;;15.83;97.82;100287.16;6275815;20;2850445;-60
2022/09/05 01:40:39;;;;;;;;;25.67;23.67;;;;;16.09;96.58;100293.31;6311956;20;3592437;-59
2022/09/05 01:43:41;;;;;;;;;21.00;21.00;;;;;15.92;97.03;100286.44;6280001;20;2835702;-59
2022/09/05 01:47:05;;;;;;;;;22.00;22.00;;;;;15.74;98.56;100288.66;6279447;20;2850399;-59
2022/09/05 01:50:00;;;;;;;;;21.00;20.33;;;;;15.97;97.11;100289.69;6309259;20;2496110;-59
2022/09/05 01:52:45;;;;;;;;;21.00;20.00;;;;;16.06;96.61;100282.72;6311155;20;2840876;-59
2022/09/05 01:56:11;;;;;;;;;21.67;21.33;;;;;16.12;96.58;100288.53;6309920;20;3591887;-59
2022/09/05 01:59:01;;;;;;;;;23.67;21.33;;;;;16.07;96.50;100284.44;6281261;20;3582657;-59
2022/09/05 02:02:00;;;;;;;;;21.67;20.67;;;;;16.05;96.60;100281.84;6280806;20;3574354;-59
2022/09/05 02:05:28;;;;;;;;;16.50;16.50;;;;;15.89;97.71;100289.38;6278478;20;2823160;-59
2022/09/05 02:09:08;;;;;;;;;24.00;22.33;;;;;15.80;98.69;100288.25;6278394;20;2850429;-59
2022/09/05 02:11:48;;;;;;;;;24.67;22.33;;;;;15.83;97.83;100281.72;6312519;20;3594086;-59
2022/09/05 02:14:42;;;;;;;;;25.67;22.33;;;;;15.67;99.22;100284.66;6280829;20;3590881;-55
2022/09/05 02:17:47;;;;;;;;;25.00;23.67;;;;;15.46;100.00;100281.69;6283521;20;3598256;-54
2022/09/05 02:20:33;;;;;;;;;20.00;20.00;;;;;15.58;100.00;100284.34;6277908;20;2842066;-53
2022/09/05 02:23:14;;;;;;;;;24.00;24.00;;;;;15.48;99.94;100283.31;6310177;20;3593968;-52
2022/09/05 02:26:27;;;;;;;;;25.67;24.00;;;;;15.46;100.00;100285.25;6276458;20;3586830;-56
2022/09/05 02:29:59;;;;;;;;;24.67;24.67;;;;;15.64;99.74;100291.19;6274076;20;2856548;-53
2022/09/05 02:33:20;;;;;;;;;24.33;22.67;;;;;15.47;98.61;100302.34;6313439;20;3592075;-53
2022/09/05 02:36:27;;;;;;;;;22.67;22.67;;;;;14.97;100.00;100294.16;6279838;20;3593033;-54
2022/09/05 02:39:38;;;;;;;;;26.00;25.33;;;;;15.17;100.00;100291.91;6276937;20;2854660;-51
2022/09/05 02:42:40;;;;;;;;;23.00;22.67;;;;;15.25;99.54;100301.19;6309875;20;3602341;-54
2022/09/05 02:45:56;;;;;;;;;25.67;25.67;;;;;15.20;100.00;100295.22;6281160;20;3600242;-54
2022/09/05 02:48:45;;;;;;;;;24.00;22.33;;;;;15.49;99.26;100298.56;6282700;20;3594033;-55
2022/09/05 02:51:38;;;;;;;;;25.33;23.00;;;;;15.26;100.00;100302.03;6279418;20;3577879;-54
2022/09/05 02:54:41;;;;;;;;;24.00;23.00;;;;;15.48;100.00;100294.13;6277778;20;3591930;-52
2022/09/05 02:58:15;;;;;;;;;25.00;23.67;;;;;15.65;99.05;100302.88;6279244;20;3591947;-52
2022/09/05 03:01:36;;;;;;;;;25.33;24.00;;;;;15.70;98.49;100300.72;6279444;20;3589902;-48
2022/09/05 03:04:43;;;;;;;;;25.33;23.67;;;;;15.76;98.15;100308.38;6306823;20;3598201;-49
2022/09/05 03:07:53;;;;;;;;;25.33;21.67;;;;;15.93;98.09;100315.25;6275605;20;3583593;-47
2022/09/05 03:11:14;;;;;;;;;25.33;23.67;;;;;15.67;98.69;100319.88;6314742;20;3593982;-47
2022/09/05 03:14:38;;;;;;;;;23.50;22.00;;;;;15.89;97.82;100308.34;6280668;20;2849207;-47
2022/09/05 03:17:39;;;;;;;;;25.33;23.00;;;;;15.93;97.30;100310.72;6281771;20;3585677;-48
2022/09/05 03:21:02;;;;;;;;;26.00;25.00;;;;;15.73;97.83;100316.72;6275759;20;2854527;-45
2022/09/05 03:24:35;;;;;;;;;24.67;23.00;;;;;15.88;97.90;100312.91;6309923;20;3591932;-48
2022/09/05 03:27:46;;;;;;;;;25.00;23.67;;;;;15.99;97.08;100321.09;6278343;20;3598225;-48
2022/09/05 03:30:46;;;;;;;;;22.33;22.00;;;;;15.89;97.52;100320.03;6313817;20;3598193;-46
2022/09/05 03:33:59;;;;;;;;;25.33;24.67;;;;;15.79;98.20;100324.41;6278397;20;3594033;-46
2022/09/05 03:37:17;;;;;;;;;23.00;23.00;;;;;15.97;97.88;100327.59;6279494;20;3579664;-51
2022/09/05 03:40:13;;;;;;;;;26.33;24.00;;;;;16.04;96.49;100318.06;6278791;20;2844114;-53
2022/09/05 03:43:10;;;;;;;;;25.33;22.33;;;;;16.06;96.38;100326.03;6318818;20;3582554;-54
2022/09/05 03:46:24;;;;;;;;;21.50;21.00;;;;;15.93;97.00;100328.78;6281352;20;2845143;-55
2022/09/05 03:49:24;;;;;;;;;22.00;20.33;;;;;15.76;97.96;100330.91;6280261;20;2840928;-55
2022/09/05 03:53:08;;;;;;;;;29.00;23.00;;;;;15.83;97.64;100333.19;6314185;20;3595116;-55
2022/09/05 03:56:24;;;;;;;;;26.33;22.33;;;;;15.62;97.86;100332.88;6285306;20;3587821;-58
2022/09/05 03:59:43;;;;;;;;;21.00;21.00;;;;;15.79;98.06;100336.09;6284164;20;3585625;-60
2022/09/05 04:02:27;;;;;;;;;24.67;22.33;;;;;15.57;98.39;100336.75;6280746;20;3598327;-59
2022/09/05 04:05:24;;;;;;;;;24.67;23.67;;;;;15.50;99.24;100340.88;6314473;20;3606665;-59
2022/09/05 04:08:40;;;;;;;;;23.33;22.00;;;;;15.58;98.86;100343.88;6284945;20;3591876;-59
2022/09/05 04:11:48;;;;;;;;;26.50;25.00;;;;;15.34;99.71;100341.09;6287676;20;3535638;-59
2022/09/05 04:16:02;;;;;;;;;21.67;21.67;;;;;15.32;100.00;100361.13;6317662;20;3587817;-59
2022/09/05 04:18:52;;;;;;;;;23.33;23.33;;;;;15.05;100.00;100361.22;6312547;20;3600227;-59
2022/09/05 04:21:34;;;;;;;;;22.33;22.33;;;;;15.21;100.00;100363.72;6286033;20;3600227;-58
2022/09/05 04:24:13;;;;;;;;;24.00;21.33;;;;;15.30;100.00;100363.94;6283026;20;3580595;-59
2022/09/05 04:27:45;;;;;;;;;26.00;24.00;;;;;15.12;100.00;100371.50;6280980;20;2846172;-59
2022/09/05 04:30:44;;;;;;;;;25.00;24.00;;;;;15.25;100.00;100368.81;6309974;20;2844118;-59
2022/09/05 04:34:10;;;;;;;;;25.00;22.00;;;;;14.81;100.00;100377.31;6313176;20;3591897;-59
2022/09/05 04:36:41;;;;;;;;;24.00;24.00;;;;;15.23;100.00;100381.59;6278221;20;3585946;-59
2022/09/05 04:39:19;;;;;;;;;26.00;24.67;;;;;15.48;100.00;100386.16;6312325;20;3597083;-59
2022/09/05 04:42:20;;;;;;;;;26.00;25.00;;;;;15.48;98.84;100385.25;6283835;20;2862885;-59
2022/09/05 04:45:07;;;;;;;;;25.00;25.00;;;;;15.31;99.67;100394.56;6313074;20;3599181;-53
2022/09/05 04:47:44;;;;;;;;;25.33;23.00;;;;;15.35;99.91;100396.09;6285323;20;3584640;-50
2022/09/05 04:50:21;;;;;;;;;31.00;26.00;;;;;15.30;100.00;100390.16;6279357;20;3593283;-50
2022/09/05 04:53:43;;;;;;;;;27.00;27.00;;;;;15.36;99.88;100397.81;6283198;20;3576392;-55
2022/09/05 04:56:24;;;;;;;;;22.00;22.00;;;;;15.45;100.00;100396.31;6280625;20;3586686;-54
2022/09/05 04:59:26;;;;;;;;;25.00;23.67;;;;;15.33;100.00;100400.75;6278171;20;3598703;-53
2022/09/05 05:02:37;;;;;;;;;22.33;22.33;;;;;15.68;98.92;100395.53;6308490;20;2842992;-54
2022/09/05 05:05:46;;;;;;;;;23.67;20.67;;;;;15.94;97.39;100404.53;6312827;20;2846148;-54
2022/09/05 05:09:05;;;;;;;;;26.00;26.00;;;;;15.68;98.46;100400.09;6316829;20;3597259;-54
2022/09/05 05:12:22;;;;;;;;;24.67;23.67;;;;;15.87;98.35;100403.22;6279128;20;2852517;-52
2022/09/05 05:15:20;;;;;;;;;25.00;22.00;;;;;16.17;96.49;100405.56;6313931;20;2852335;-54
2022/09/05 05:18:26;;;;;;;;;22.00;22.00;;;;;16.16;95.53;100408.38;6280336;20;2852347;-56
2022/09/05 05:21:24;;;;;;;;;22.33;21.00;;;;;16.32;95.07;100414.38;6282854;20;2848305;-52
2022/09/05 05:24:14;;;;;;;;;20.50;20.00;;;;;16.45;94.61;100415.22;6313120;20;2840874;-52
2022/09/05 05:27:08;;;;;;;;;19.50;19.50;;;;;16.71;93.37;100425.09;6279053;20;2494065;-54
2022/09/05 05:30:01;;;;;;;;;24.50;23.50;;;;;16.82;93.07;100423.31;6281324;20;2846188;-53
2022/09/05 05:32:40;;;;;;;;;21.67;21.67;;;;;16.67;93.42;100424.47;6283116;20;3586404;-55
2022/09/05 05:35:31;;;;;;;;;20.33;19.33;;;;;16.84;91.59;100432.22;6281984;20;3565869;-55
2022/09/05 05:38:24;;;;;;;;;22.00;21.00;;;;;16.98;90.83;100433.00;6313320;20;3570019;-54
2022/09/05 05:41:44;;;;;;;;;20.00;17.00;;;;;17.02;90.44;100429.09;6278007;20;2828392;-52
2022/09/05 05:44:38;;;;;;;;;19.50;19.50;;;;;17.29;89.62;100435.09;6280026;20;2840869;-53
2022/09/05 05:47:23;;;;;;;;;19.00;17.50;;;;;17.49;88.44;100440.84;6283819;20;2827391;-53
2022/09/05 05:50:55;;;;;;;;;19.50;19.50;;;;;17.55;87.69;100441.19;6280804;20;2833587;-54
2022/09/05 05:53:55;;;;;;;;;17.50;17.50;;;;;17.85;87.57;100441.63;6277375;20;2836887;-55
2022/09/05 05:57:09;;;;;;;;;20.50;19.00;;;;;18.08;85.75;100446.09;6279279;20;2845062;-54
2022/09/05 06:00:27;;;;;;;;;21.00;17.00;;;;;18.48;84.03;100448.25;6280362;20;2485729;-53
2022/09/05 06:03:35;;;;;;;;;16.00;16.00;;;;;20.55;75.63;100448.59;6309536;20;2496132;-55
2022/09/05 06:06:31;;;;;;;;;14.00;14.00;;;;;22.56;67.73;100454.94;6310447;20;2491945;-56
2022/09/05 06:09:04;;;;;;;;;16.00;15.00;;;;;23.41;63.64;100460.09;6278655;20;2483672;-56
2022/09/05 06:12:25;;;;;;;;;15.00;13.00;;;;;23.99;61.92;100458.63;6281925;20;3523157;-56
2022/09/05 06:16:43;;;;;;;;;1.00;1.00;;;;;23.03;65.30;100461.25;6317231;20;2740401;-53
2022/09/05 06:20:13;;;;;;;;;16.33;15.67;;;;;23.08;64.08;100458.91;6309846;20;3545021;-56
2022/09/05 06:23:23;;;;;;;;;14.00;13.00;;;;;21.25;72.03;100458.44;6310336;20;3529439;-58
2022/09/05 06:27:00;;;;;;;;;18.50;15.00;;;;;24.03;62.27;100455.38;6277195;20;2819085;-57
2022/09/05 06:30:07;;;;;;;;;12.00;12.00;;;;;26.76;53.80;100472.75;6282406;20;3539935;-57
2022/09/05 06:33:37;;;;;;;;;11.33;10.00;;;;;29.13;47.68;100472.31;6276914;20;3510671;-56
2022/09/05 06:37:32;;;;;;;;;11.33;11.33;;;;;29.87;44.59;100475.59;6277495;20;3520394;-57
2022/09/05 06:40:24;;;;;;;;;12.67;10.00;;;;;29.50;44.04;100472.06;6277724;20;3500214;-58
2022/09/05 06:43:53;;;;;;;;;9.00;9.00;;;;;31.44;40.75;100485.13;6316015;20;2735703;-58
2022/09/05 06:46:36;;;;;;;;;9.00;8.00;;;;;27.13;49.81;100463.72;6310990;20;2754627;-58
2022/09/05 06:49:41;;;;;;;;;9.00;8.00;;;;;23.07;60.72;100459.94;6312496;20;2751332;-57
2022/09/05 06:53:10;;;;;;;;;8.33;8.33;;;;;22.28;63.40;100464.16;6311860;20;2748225;-57
2022/09/05 06:56:18;;;;;;;;;7.40;7.40;;;;;22.01;64.64;100454.88;6337136;20;2750297;-55
2022/09/05 06:59:14;;;;;;;;;9.00;9.00;;;;;22.12;64.20;100457.41;6277056;20;2748361;-54
2022/09/05 07:02:14;;;;;;;;;9.20;8.60;;;;;22.29;63.48;100458.50;6338538;20;2760674;-55
2022/09/05 07:05:51;;;;;;;;;8.00;8.00;;;;;22.58;63.26;100461.09;6281044;20;2754416;-56
2022/09/05 07:08:46;;;;;;;;;6.20;6.20;;;;;22.62;62.66;100464.41;6334901;20;2734657;-54
2022/09/05 07:11:39;;;;;;;;;11.67;10.00;;;;;22.60;62.51;100465.56;6280130;20;2794094;-55
2022/09/05 07:14:27;;;;;;;;;8.33;8.33;;;;;22.74;61.38;100465.03;6312615;20;3473223;-56
2022/09/05 07:17:15;;;;;;;;;11.00;10.00;;;;;22.85;60.27;100461.22;6321165;20;2785712;-57
2022/09/05 07:19:56;;;;;;;;;9.00;9.00;;;;;22.67;61.52;100463.91;6315286;20;2764986;-56
2022/09/05 07:22:47;;;;;;;;;8.33;8.33;;;;;24.49;57.58;100457.88;6319701;20;2750277;-55
2022/09/05 07:25:28;;;;;;;;;10.00;8.67;;;;;27.95;47.27;100482.41;6324412;20;2771246;-58
2022/09/05 07:28:13;;;;;;;;;8.00;6.67;;;;;24.52;56.05;100469.38;6319811;20;2746084;-54
2022/09/05 07:31:20;;;;;;;;;6.00;6.00;;;;;23.81;58.63;100470.53;6346480;20;2738881;-55
2022/09/05 07:34:32;;;;;;;;;6.80;6.80;;;;;23.33;59.21;100470.94;6345794;20;2739887;-55
2022/09/05 07:37:20;;;;;;;;;10.20;8.00;;;;;23.42;58.39;100464.53;6343298;20;2765875;-56
2022/09/05 07:39:55;;;;;;;;;8.60;8.60;;;;;23.92;57.36;100463.03;6314673;20;2756501;-52
2022/09/05 07:42:44;;;;;;;;;8.33;8.33;;;;;23.86;57.85;100470.03;6291952;20;2765021;-57
2022/09/05 07:45:42;;;;;;;;;7.33;6.67;;;;;24.26;56.83;100466.66;6319931;20;2728416;-57
2022/09/05 07:48:28;;;;;;;;;6.60;6.60;;;;;23.94;57.60;100463.75;6342256;20;2744029;-56
2022/09/05 07:51:15;;;;;;;;;7.33;7.33;;;;;24.49;56.69;100475.22;6290086;20;2739832;-57
2022/09/05 07:54:19;;;;;;;;;7.50;7.50;;;;;24.14;55.64;100467.97;6318640;20;2733622;-58
2022/09/05 07:57:14;;;;;;;;;7.60;7.60;;;;;24.12;56.94;100469.16;6342313;20;2756917;-61
2022/09/05 08:00:11;;;;;;;;;9.00;7.40;;;;;24.50;56.54;100467.84;6313050;20;2754424;-60
2022/09/05 08:03:08;;;;;;;;;7.67;7.67;;;;;24.59;54.97;100466.81;6287589;20;2756484;-61
2022/09/05 08:05:48;;;;;;;;;7.00;7.00;;;;;24.98;54.62;100466.25;6343265;20;2746117;-62
2022/09/05 08:08:24;;;;;;;;;8.00;8.00;;;;;24.82;55.19;100468.97;6286549;20;2742077;-63
2022/09/05 08:11:03;;;;;;;;;7.00;7.00;;;;;24.64;54.94;100464.44;6316965;20;2747178;-62
2022/09/05 08:14:29;;;;;;;;;7.67;5.33;;;;;25.44;52.71;100466.69;6320568;20;2739921;-63
2022/09/05 08:17:24;;;;;;;;;7.33;7.33;;;;;25.28;53.47;100462.03;6322887;20;2744017;-62
2022/09/05 08:20:34;;;;;;;;;8.67;7.00;;;;;25.52;52.55;100466.69;6318512;20;2754461;-62
2022/09/05 08:23:50;;;;;;;;;8.67;8.67;;;;;25.69;52.35;100474.91;6324651;20;2745170;-62
2022/09/05 08:26:43;;;;;;;;;9.00;7.00;;;;;25.60;52.50;100474.06;6324441;20;2750287;-61
2022/09/05 08:30:07;;;;;;;;;7.00;7.00;;;;;25.35;52.81;100462.19;6317736;20;2743997;-62
2022/09/05 08:33:35;;;;;;;;;7.33;7.33;;;;;25.52;52.43;100463.94;6323155;20;2752342;-61
2022/09/05 08:36:35;;;;;;;;;14.67;9.67;;;;;25.84;51.49;100462.19;6313418;20;2793540;-62
2022/09/05 08:39:09;;;;;;;;;6.80;6.40;;;;;26.22;50.96;100465.19;6341905;20;2745176;-61
2022/09/05 08:42:22;;;;;;;;;7.33;6.33;;;;;26.23;50.07;100461.41;6293914;20;2736745;-62
2022/09/05 08:45:43;;;;;;;;;8.00;8.00;;;;;25.65;50.60;100462.56;6318232;20;3461688;-60
2022/09/05 08:49:27;;;;;;;;;7.67;7.00;;;;;25.49;50.77;100458.78;6315742;20;2739854;-64
2022/09/05 08:53:01;;;;;;;;;8.33;7.00;;;;;25.78;49.68;100455.47;6324552;20;2743977;-63
2022/09/05 08:55:58;;;;;;;;;6.00;6.00;;;;;25.61;49.70;100457.38;6315318;20;2746113;-64
2022/09/05 08:59:18;;;;;;;;;9.33;8.00;;;;;25.91;48.82;100460.47;6319279;20;2755476;-60
2022/09/05 09:02:25;;;;;;;;;9.33;6.33;;;;;25.66;48.27;100458.75;6317496;20;2749224;-62
2022/09/05 09:05:28;;;;;;;;;17.33;10.67;;;;;26.26;46.80;100455.56;6319367;20;2816927;-62
2022/09/05 09:08:51;;;;;;;;;12.00;10.00;;;;;26.45;45.79;100457.03;6313535;20;2784671;-62
2022/09/05 09:11:37;;;;;;;;;6.00;6.00;;;;;25.75;47.03;100444.81;6318080;20;2744152;-62
2022/09/05 09:14:50;;;;;;;;;9.67;8.33;;;;;26.17;46.75;100456.59;6313229;20;2757562;-61
2022/09/05 09:17:49;;;;;;;;;6.33;6.33;;;;;25.87;46.28;100445.34;6315832;20;2740012;-63
2022/09/05 09:20:55;;;;;;;;;8.00;8.00;;;;;26.41;45.68;100452.91;6313269;20;2748224;-61
2022/09/05 09:23:54;;;;;;;;;10.33;7.33;;;;;26.33;46.77;100440.06;6316503;20;2760092;-61
2022/09/05 09:26:41;;;;;;;;;7.00;7.00;;;;;26.14;47.44;100445.94;6319428;20;2747149;-60
2022/09/05 09:29:12;;;;;;;;;8.00;7.67;;;;;26.18;47.14;100452.84;6315222;20;2748225;-58
2022/09/05 09:32:16;;;;;;;;;10.67;8.00;;;;;26.04;47.75;100441.53;6314973;20;2765940;-60
2022/09/05 09:35:20;;;;;;;;;10.67;9.00;;;;;26.70;46.25;100447.63;6315493;20;2771196;-61
2022/09/05 09:39:14;;;;;;;;;12.00;8.33;;;;;26.87;45.39;100447.53;6317584;20;2771096;-61
2022/09/05 09:42:33;;;;;;;;;9.00;7.33;;;;;25.56;48.23;100436.94;6320470;20;2755474;-60
2022/09/05 09:45:40;;;;;;;;;9.00;7.00;;;;;26.18;47.12;100436.31;6316605;20;2762797;-60
2022/09/05 09:48:38;;;;;;;;;7.67;7.00;;;;;26.47;46.68;100439.28;6316253;20;2748198;-60
2022/09/05 09:52:02;;;;;;;;;5.60;5.60;;;;;26.35;45.63;100426.09;6341958;20;2740012;-61
2022/09/05 09:54:58;;;;;;;;;8.00;8.00;;;;;27.16;45.01;100427.50;6317752;20;2746115;-60
2022/09/05 09:58:15;;;;;;;;;7.33;7.33;;;;;27.03;44.36;100425.38;6318871;20;2751302;-60
2022/09/05 10:01:13;;;;;;;;;7.00;7.00;;;;;28.15;42.69;100428.34;6316291;20;2754412;-60
2022/09/05 10:04:42;;;;;;;;;9.00;9.00;;;;;28.44;41.80;100429.38;6323202;20;2746202;-60
2022/09/05 10:08:16;;;;;;;;;6.00;6.00;;;;;27.69;41.74;100428.44;6317802;20;2733656;-60
2022/09/05 10:11:37;;;;;;;;;6.67;6.67;;;;;26.34;45.49;100427.97;6314120;20;2748285;-60
2022/09/05 10:15:00;;;;;;;;;7.00;6.67;;;;;26.97;43.59;100423.34;6313351;20;2743094;-60
2022/09/05 10:18:20;;;;;;;;;6.00;6.00;;;;;27.34;42.58;100428.09;6317396;20;2742027;-60
2022/09/05 10:21:34;;;;;;;;;8.33;7.00;;;;;27.73;42.93;100421.53;6317368;20;2746112;-60
2022/09/05 10:24:42;;;;;;;;;7.67;6.33;;;;;27.75;43.13;100413.03;6315270;20;2754403;-60
2022/09/05 10:27:58;;;;;;;;;9.33;9.33;;;;;28.28;41.71;100412.97;6314288;20;2764945;-61
2022/09/05 10:31:20;;;;;;;;;6.00;6.00;;;;;28.59;41.17;100410.84;6317708;20;2746184;-61
2022/09/05 10:34:28;;;;;;;;;5.40;5.40;;;;;28.08;42.45;100416.31;6340924;20;2741965;-62
2022/09/05 10:37:18;;;;;;;;;11.33;8.33;;;;;27.70;42.82;100394.31;6281777;20;2773288;-60
2022/09/05 10:39:50;;;;;;;;;6.67;6.00;;;;;28.15;41.79;100397.09;6312368;20;2731555;-61
2022/09/05 10:42:37;;;;;;;;;9.00;8.00;;;;;27.82;42.35;100397.47;6316103;20;2754478;-59
2022/09/05 10:45:56;;;;;;;;;7.33;6.00;;;;;28.86;40.21;100400.13;6314625;20;2739875;-59
2022/09/05 10:48:40;;;;;;;;;4.00;4.00;;;;;27.93;41.08;100393.38;6317843;20;2738844;-59
2022/09/05 10:51:48;;;;;;;;;12.67;10.00;;;;;28.14;41.82;100387.09;6312272;20;3506567;-59
2022/09/05 10:55:20;;;;;;;;;13.33;12.33;;;;;27.77;41.98;100388.88;6277926;20;3510819;-59
2022/09/05 10:58:42;;;;;;;;;5.80;5.80;;;;;27.50;42.56;100376.56;6304958;20;2744022;-58
2022/09/05 11:02:04;;;;;;;;;6.67;6.67;;;;;26.21;45.35;100380.91;6280843;20;2756517;-56
2022/09/05 11:05:35;;;;;;;;;8.00;7.00;;;;;25.85;45.47;100373.09;6309820;20;2748235;-59
2022/09/05 11:08:40;;;;;;;;;8.67;8.67;;;;;25.59;45.77;100371.44;6312134;20;2750380;-58
2022/09/05 11:11:23;;;;;;;;;7.33;7.33;;;;;25.74;45.73;100368.81;6320004;20;2741952;-55
2022/09/05 11:14:33;;;;;;;;;9.33;9.33;;;;;25.81;46.18;100368.97;6311436;20;3488786;-53
2022/09/05 11:17:37;;;;;;;;;5.00;5.00;;;;;25.57;45.86;100367.16;6312356;20;2742039;-54
2022/09/05 11:20:44;;;;;;;;;6.00;6.00;;;;;25.64;46.07;100362.66;6317067;20;2746549;-56
2022/09/05 11:23:49;;;;;;;;;7.33;7.33;;;;;26.52;43.99;100366.31;6311964;20;2745079;-59
2022/09/05 11:27:33;;;;;;;;;9.00;8.00;;;;;27.32;43.30;100363.13;6319630;20;2754525;-50
2022/09/05 11:30:21;;;;;;;;;7.00;7.00;;;;;27.40;42.75;100360.28;6314750;20;2754411;-53
2022/09/05 11:33:21;;;;;;;;;6.67;6.33;;;;;26.49;43.90;100357.34;6313334;20;2731595;-51
2022/09/05 11:36:52;;;;;;;;;8.00;6.67;;;;;27.66;42.78;100359.84;6317083;20;2747157;-50
2022/09/05 11:40:33;;;;;;;;;7.00;6.00;;;;;27.69;42.20;100355.84;6315105;20;2740923;-49
2022/09/05 11:44:16;;;;;;;;;7.67;6.33;;;;;27.08;42.93;100354.00;6321814;20;2748171;-52
2022/09/05 11:48:04;;;;;;;;;7.33;6.00;;;;;27.90;41.52;100355.97;6322732;20;2727502;-52
2022/09/05 11:51:39;;;;;;;;;6.33;6.00;;;;;27.56;42.19;100353.75;6309008;20;2737820;-49
2022/09/05 11:55:19;;;;;;;;;10.00;7.33;;;;;28.32;42.95;100359.06;6307658;20;2770049;-53
2022/09/05 11:58:32;;;;;;;;;7.67;7.67;;;;;28.48;40.94;100358.88;6312690;20;2746134;-52
2022/09/05 12:01:47;;;;;;;;;5.67;5.67;;;;;27.93;42.97;100349.22;6319220;20;2740901;-55
2022/09/05 12:04:52;;;;;;;;;7.33;6.00;;;;;26.84;43.28;100349.56;6320984;20;2738868;-50
2022/09/05 12:08:26;;;;;;;;;9.00;7.00;;;;;26.34;44.75;100337.13;6316276;20;2748195;-49
2022/09/05 12:11:41;;;;;;;;;7.00;7.00;;;;;26.45;45.36;100338.59;6317842;20;2750259;-54
2022/09/05 12:14:45;;;;;;;;;10.00;8.00;;;;;26.59;44.28;100332.31;6318700;20;2763809;-58
2022/09/05 12:17:37;;;;;;;;;8.67;6.67;;;;;26.71;44.86;100332.78;6315390;20;2744044;-58
2022/09/05 12:20:45;;;;;;;;;7.60;7.20;;;;;26.46;44.68;100323.78;6344938;20;2750273;-57
2022/09/05 12:23:25;;;;;;;;;7.00;7.00;;;;;25.97;45.03;100319.41;6291735;20;2748632;-54
2022/09/05 12:26:42;;;;;;;;;8.00;7.00;;;;;26.01;45.43;100325.41;6319978;20;2752316;-53
2022/09/05 12:29:39;;;;;;;;;15.33;9.67;;;;;26.24;44.72;100325.47;6311533;20;3512813;-55
2022/09/05 12:32:28;;;;;;;;;7.00;7.00;;;;;26.20;44.87;100321.38;6317912;20;2750296;-57
2022/09/05 12:36:02;;;;;;;;;7.33;7.33;;;;;26.13;46.00;100320.38;6323259;20;2746063;-58
2022/09/05 12:39:08;;;;;;;;;7.67;7.67;;;;;26.15;45.85;100321.06;6315910;20;2750311;-54
2022/09/05 12:42:39;;;;;;;;;8.33;8.33;;;;;26.18;45.71;100309.69;6320332;20;2738799;-56
2022/09/05 12:45:58;;;;;;;;;10.00;8.00;;;;;25.93;45.54;100311.69;6321737;20;2764826;-54
2022/09/05 12:49:08;;;;;;;;;7.67;7.67;;;;;25.98;46.91;100304.59;6321772;20;2754507;-56
2022/09/05 12:51:54;;;;;;;;;6.67;6.67;;;;;26.11;44.81;100304.03;6316174;20;2741944;-58
2022/09/05 12:54:34;;;;;;;;;8.00;7.00;;;;;26.56;43.88;100307.06;6316078;20;2743986;-52
2022/09/05 12:57:34;;;;;;;;;7.00;7.00;;;;;27.14;42.75;100305.53;6316148;20;2745062;-51
2022/09/05 13:00:23;;;;;;;;;7.67;7.67;;;;;27.20;42.84;100299.31;6318618;20;2744010;-55
2022/09/05 13:03:51;;;;;;;;;9.00;7.33;;;;;27.26;42.64;100301.31;6316052;20;2752375;-53
2022/09/05 13:06:47;;;;;;;;;9.00;9.00;;;;;27.32;43.67;100297.78;6315120;20;2758629;-55
2022/09/05 13:09:42;;;;;;;;;7.00;7.00;;;;;27.11;43.42;100292.97;6314459;20;2745069;-57
2022/09/05 13:12:56;;;;;;;;;6.00;6.00;;;;;26.45;44.49;100292.63;6328018;20;2731555;-58
2022/09/05 13:15:52;;;;;;;;;8.33;8.33;;;;;27.61;42.28;100295.25;6314644;20;2752454;-54
2022/09/05 13:18:37;;;;;;;;;7.00;7.00;;;;;26.89;42.93;100285.63;6323692;20;2750260;-53
2022/09/05 13:21:20;;;;;;;;;7.00;7.00;;;;;27.26;42.04;100287.53;6312542;20;2746095;-53
2022/09/05 13:24:20;;;;;;;;;8.33;7.00;;;;;27.24;41.80;100286.84;6313504;20;2737778;-52
2022/09/05 13:27:06;;;;;;;;;6.67;6.67;;;;;27.36;41.86;100290.00;6315539;20;2742036;-57
2022/09/05 13:29:55;;;;;;;;;7.67;6.00;;;;;27.47;42.74;100283.16;6313070;20;2745054;-58
2022/09/05 13:32:55;;;;;;;;;7.67;7.67;;;;;27.13;41.37;100279.00;6315982;20;2756737;-56
2022/09/05 13:36:04;;;;;;;;;6.00;6.00;;;;;27.95;41.83;100278.13;6315983;20;2739884;-58
2022/09/05 13:39:08;;;;;;;;;7.00;7.00;;;;;28.05;41.52;100275.06;6314850;20;2754591;-57
2022/09/05 13:41:50;;;;;;;;;10.67;9.67;;;;;27.96;41.40;100271.53;6313467;20;2780505;-57
2022/09/05 13:44:24;;;;;;;;;8.00;7.67;;;;;27.85;41.10;100270.13;6311548;20;2754579;-54
2022/09/05 13:47:35;;;;;;;;;9.33;8.33;;;;;27.65;41.04;100275.38;6314328;20;2760918;-51
2022/09/05 13:50:21;;;;;;;;;6.67;6.67;;;;;27.49;41.29;100276.41;6315855;20;2738812;-59
2022/09/05 13:53:26;;;;;;;;;9.67;8.67;;;;;27.82;40.97;100269.66;6312007;20;3481600;-59
2022/09/05 13:56:20;;;;;;;;;7.33;7.33;;;;;27.68;40.18;100268.63;6323376;20;2747123;-58
2022/09/05 13:59:00;;;;;;;;;6.33;5.33;;;;;26.82;42.01;100262.59;6311478;20;2748191;-59